createdAt,value
2023-02-05T00:07:55.501Z,1.066027382943144
2023-02-05T00:19:51.223Z,1.1574538827341136
2023-02-05T00:26:15.043Z,1.1028872282608695
2023-02-05T00:32:37.533Z,1.0413428877508362
2023-02-05T00:38:58.578Z,0.948147470735786
2023-02-05T00:45:21.599Z,1.052266016931438
2023-02-05T00:57:07.309Z,0.8448539402173912
2023-02-05T01:03:30.072Z,0.8269557378762542
2023-02-05T01:13:11.281Z,0.6853104096989967
2023-02-05T01:19:33.937Z,0.6401964882943143
2023-02-05T01:30:36.750Z,0.6032464987458194
2023-02-05T01:36:59.697Z,0.6145452288879598
2023-02-05T01:46:45.382Z,0.6898692255434783
2023-02-05T01:53:08.185Z,0.6100327915969901
2023-02-05T02:01:32.955Z,0.4879866482023411
2023-02-05T02:07:53.671Z,0.5053224289297659
2023-02-05T02:14:15.634Z,0.5580019335284281
2023-02-05T02:20:38.162Z,0.6490783079013378
2023-02-05T02:27:01.398Z,0.8680033706103678
2023-02-05T02:33:23.543Z,0.9455450459866221
2023-02-05T02:39:44.794Z,0.9304112667224079
2023-02-05T02:46:06.930Z,0.908289349916388
2023-02-05T02:57:48.039Z,1.060121629389632
2023-02-05T03:04:10.115Z,0.9230357702759198
2023-02-05T03:10:32.951Z,0.9215255278010034
2023-02-05T03:16:54.049Z,0.9390095892558531
2023-02-05T03:26:43.798Z,1.0794072690217391
2023-02-05T03:33:06.555Z,1.0670026390050167
2023-02-05T03:39:27.760Z,1.0244238607859533
2023-02-05T03:50:14.111Z,0.9936918635033446
2023-02-05T03:56:36.320Z,1.1137613660117056
2023-02-05T04:04:32.532Z,1.0589595526755853
2023-02-05T04:10:56.365Z,0.9467593802257525
2023-02-05T04:17:19.614Z,0.919320260242475
2023-02-05T04:23:40.646Z,0.8618650710702341
2023-02-05T04:30:02.857Z,0.9667785848662208
2023-02-05T04:38:44.098Z,0.9506545255016722
2023-02-05T04:49:43.752Z,0.9834827027591972
2023-02-05T04:56:05.760Z,1.0302499216137124
2023-02-05T05:07:18.769Z,0.9558835441053513
2023-02-05T05:13:40.547Z,1.0017787155100335
2023-02-05T05:20:02.668Z,0.9529525501672241
2023-02-05T05:26:25.478Z,0.8868245714882944
2023-02-05T05:32:53.853Z,0.9480658183528428
2023-02-05T05:39:16.989Z,1.0525958925585284
2023-02-05T05:45:38.475Z,1.0093312343227425
2023-02-05T06:00:10.658Z,1.0285829065635452
2023-02-05T06:06:32.946Z,1.072679112667224
2023-02-05T06:14:58.746Z,1.0114894701086958
2023-02-05T06:21:20.782Z,0.9604221101588629
2023-02-05T06:27:44.045Z,0.80962191680602
2023-02-05T06:34:06.806Z,0.7518760451505018
2023-02-05T06:40:29.888Z,0.8489783653846154
2023-02-05T06:46:50.604Z,0.8685194136705685
2023-02-05T06:53:13.455Z,0.8915695547658862
2023-02-05T06:59:36.511Z,0.8705195704431437
2023-02-05T07:15:09.433Z,0.872722225125418
2023-02-05T07:22:30.660Z,0.8909241743311036
2023-02-05T07:28:52.054Z,0.8629624790969901
2023-02-05T07:43:52.063Z,0.9792361256270902
2023-02-05T07:50:30.310Z,1.1041440217391305
2023-02-05T07:58:14.874Z,1.1462191680602005
2023-02-05T08:04:38.700Z,1.1407530309364546
2023-02-05T08:13:16.429Z,1.254938989339465
2023-02-05T08:19:41.439Z,1.2894831730769232
2023-02-05T08:26:07.106Z,1.3748954849498327
2023-02-05T08:32:31.277Z,1.5298214099080267
2023-02-05T08:39:05.503Z,1.573351275083612
2023-02-05T08:45:30.931Z,1.5038755487040134
2023-02-05T08:51:55.330Z,1.3996838419732445
2023-02-05T08:58:19.517Z,1.5347669314381271
2023-02-05T09:11:47.101Z,1.7894093593227423
2023-02-05T09:18:10.865Z,1.8270321645066891
2023-02-05T09:28:05.988Z,1.995409176421405
2023-02-05T09:40:21.186Z,2.133633596362876
2023-02-05T09:46:46.491Z,2.2185651390050163
2023-02-05T09:53:10.153Z,2.294472460284281
2023-02-05T10:03:43.797Z,2.2982950982441475
2023-02-05T10:15:00.855Z,2.4420457514632106
2023-02-05T10:21:29.828Z,2.5432424487876255
2023-02-05T10:27:53.889Z,2.3887901076505016
2023-02-05T10:34:18.248Z,2.5165604096989966
2023-02-05T10:40:42.943Z,2.6211969586120403
2023-02-05T10:51:10.412Z,2.747403454222408
2023-02-05T10:57:34.612Z,2.900122151964883
2023-02-05T11:20:11.743Z,3.0721513116638794
2023-02-05T11:26:36.735Z,3.0536109949832775
2023-02-05T11:33:01.404Z,2.9999993467809367
2023-02-05T11:40:43.780Z,3.084412233486622
2023-02-05T11:50:30.840Z,3.1079411841555182
2023-02-05T11:56:54.809Z,3.0656184678093648
2023-02-05T12:03:19.134Z,3.335343723871237
2023-02-05T12:09:42.862Z,3.672661475752508
2023-02-05T12:16:06.085Z,3.833052884615385
2023-02-05T12:22:30.056Z,3.894959108486622
2023-02-05T12:32:20.724Z,3.8229475857023405
2023-02-05T12:38:48.225Z,3.8460506375418055
2023-02-05T12:45:29.068Z,3.8776488033026757
2023-02-05T12:51:52.848Z,3.8509556594899665
2023-02-05T13:00:25.657Z,3.951715353260869
2023-02-05T13:06:49.961Z,4.0418595840301
2023-02-05T13:15:52.196Z,4.097137594063545
2023-02-05T13:22:15.634Z,4.080038931856188
2023-02-05T13:28:39.910Z,4.022004990593645
2023-02-05T13:35:03.448Z,4.025411528010033
2023-02-05T13:41:26.738Z,4.009109793060201
2023-02-05T13:51:07.495Z,4.1870963106187284
2023-02-05T13:57:32.742Z,4.096253135451505
2023-02-05T14:04:40.238Z,4.100546744356187
2023-02-05T14:11:04.003Z,4.14485002090301
2023-02-05T14:18:50.130Z,4.127812108068562
2023-02-05T14:26:17.184Z,4.014871185200669
2023-02-05T14:36:44.387Z,3.8833396477842808
2023-02-05T14:43:10.682Z,3.8752227477006693
2023-02-05T14:51:58.958Z,3.9318842757107024
2023-02-05T14:59:59.725Z,3.8818999529682277
2023-02-05T15:15:49.556Z,4.0667707462374585
2023-02-05T15:22:13.428Z,4.046554922658863
2023-02-05T15:28:37.308Z,3.9342665656354514
2023-02-05T15:35:00.606Z,3.9827484845317724
2023-02-05T15:41:24.222Z,3.961868990384615
2023-02-05T15:52:18.374Z,3.865966633570234
2023-02-05T15:58:41.630Z,3.9479083925585288
2023-02-05T16:10:10.404Z,3.977387515677258
2023-02-05T16:16:33.126Z,4.025216215510034
2023-02-05T16:22:55.244Z,4.015412050585284
2023-02-05T16:29:25.670Z,4.010288853469899
2023-02-05T16:35:48.346Z,4.106863372700669
2023-02-05T16:47:51.507Z,4.184614078177257
2023-02-05T16:54:11.810Z,4.201463210702341
2023-02-05T17:00:32.487Z,4.168041257316054
2023-02-05T17:06:54.449Z,4.160717365175585
2023-02-05T17:19:30.519Z,4.168529865175586
2023-02-05T17:28:11.777Z,4.178005460911371
2023-02-05T17:37:59.086Z,3.9429491534280934
2023-02-05T17:47:37.508Z,3.923304243311037
2023-02-05T17:54:04.899Z,3.8108774038461535
2023-02-05T18:00:25.957Z,3.6845964412625416
2023-02-05T18:06:46.723Z,3.611369931020067
2023-02-05T18:13:55.425Z,3.5987628030936456
2023-02-05T18:20:16.088Z,3.547225125418061
2023-02-05T18:29:06.924Z,3.4705698683110366
2023-02-05T18:46:06.227Z,3.2832593018394647
2023-02-05T18:52:27.263Z,3.1521079379180605
2023-02-05T18:58:47.740Z,3.058086198787625
2023-02-05T19:05:08.568Z,3.171299514005017
2023-02-05T19:11:31.096Z,3.4419255591555182
2023-02-05T19:17:52.373Z,3.637969664506689
2023-02-05T19:24:12.838Z,3.7748497596153845
2023-02-05T19:50:00.596Z,4.02275945861204
2023-02-05T20:01:38.916Z,4.015327132107023
2023-02-05T20:08:04.927Z,3.8566144962374582
2023-02-05T20:14:26.907Z,3.6945541126672237
2023-02-05T20:20:48.506Z,3.5661240593645487
2023-02-05T20:27:09.310Z,3.5158608120819395
2023-02-05T20:33:30.667Z,3.458929504598662
2023-02-05T20:49:09.403Z,3.3064459657190635
2023-02-05T21:02:40.625Z,3.2151893028846152
2023-02-05T21:09:02.492Z,3.04578608382107
2023-02-05T21:20:40.424Z,2.906698761496655
2023-02-05T21:27:01.282Z,2.8595500627090296
2023-02-05T21:33:22.474Z,2.8294490750418055
2023-02-05T21:40:47.090Z,2.820318378971572
2023-02-05T21:47:08.082Z,2.7387692046404686
2023-02-05T21:58:32.478Z,2.7035293426003344
2023-02-05T22:04:53.775Z,2.64660783340301
2023-02-05T22:11:17.788Z,2.659304452341137
2023-02-05T22:21:17.652Z,2.612576426630435
2023-02-05T22:27:38.964Z,2.559863607859532
2023-02-05T22:36:27.823Z,2.51722799958194
2023-02-05T22:44:20.473Z,2.4551192778010034
2023-02-05T22:50:42.093Z,2.371994539088629
2023-02-05T22:57:03.034Z,2.349416675376254
2023-02-05T23:04:38.509Z,2.373408758361204
2023-02-05T23:11:02.033Z,2.2488183267140465
2023-02-05T23:17:24.725Z,2.243452132107023
2023-02-05T23:23:45.933Z,2.2176571645066887
2023-02-05T23:30:06.775Z,2.1650135869565217
2023-02-05T23:51:15.679Z,2.098599498327759
2023-02-05T23:57:37.410Z,2.0938401442307693
